Terminal Aerodrome Forecast
Issued by NWS Charleston, WV

Current Version | Previous Version | Text Only | Print | Product List | Glossary Off
Versions: 1 2 3 4 5 6 7 8 9 10 11 12 13 14 15 16 17 18 19 20 21 22 23 24 25 26 27 28

000
FTUS41 KRLX 012337
TAFPKB
TAF
KPKB 012337Z 0200/0224 02003KT P6SM SCT070
     FM020700 VRB02KT 5SM BR SCT070
     FM020900 00000KT 1SM BR FEW002 SCT070
     FM021200 00000KT 4SM BR SCT070
     FM021400 06003KT P6SM SCT050
      AMD NOT SKED=

USA.gov is the U.S. government's official web portal to all federal, state and local government web resources and services.